Time;durP1;ratioP1;P1;durP2;ratioP2;P2;SDS_P1;SDS_P2;PMS_P1;PMS_P2;Temp;Humidity;BMP_temperature;BMP_pressure;BME280_temperature;BME280_humidity;BME280_pressure;Samples;Min_cycle;Max_cycle;Signal;HPM_P1;HPM_P2
2021/12/29 00:02:12;;;;;;;1.87;1.40;;;-20.00;97.20;;;;;;2220726;64;20119;-36
2021/12/29 00:04:39;;;;;;;3.63;1.10;;;-20.10;97.20;;;;;;2220878;64;20089;-37
2021/12/29 00:07:06;;;;;;;2.40;1.40;;;-20.00;97.50;;;;;;2220624;64;20097;-35
2021/12/29 00:09:36;;;;;;;4.77;2.10;;;-20.00;97.60;;;;;;2220832;64;20097;-34
2021/12/29 00:12:04;;;;;;;5.33;1.73;;;-19.90;97.70;;;;;;2220952;64;20089;-35
2021/12/29 00:14:31;;;;;;;6.23;1.50;;;-19.70;98.70;;;;;;2220794;64;20092;-37
2021/12/29 00:16:58;;;;;;;2.70;1.87;;;-19.70;98.60;;;;;;2221033;64;20538;-41
2021/12/29 00:19:25;;;;;;;8.57;3.00;;;-19.70;98.50;;;;;;2221128;64;20109;-35
2021/12/29 00:21:52;;;;;;;5.13;1.97;;;-19.40;99.20;;;;;;2220110;64;20128;-34
2021/12/29 00:24:19;;;;;;;5.30;1.10;;;-19.40;99.30;;;;;;2220653;64;20168;-36
2021/12/29 00:26:52;;;;;;;5.13;1.83;;;-19.20;99.70;;;;;;2214263;64;20072;-35
2021/12/29 00:29:19;;;;;;;2.57;1.30;;;-19.10;99.90;;;;;;2220781;64;20119;-35
2021/12/29 00:31:46;;;;;;;4.47;1.47;;;-19.10;99.90;;;;;;2221219;64;20092;-35
2021/12/29 00:34:13;;;;;;;4.27;2.27;;;-19.20;99.50;;;;;;2220884;64;20433;-36
2021/12/29 00:36:40;;;;;;;2.17;1.20;;;-19.40;98.80;;;;;;2221157;64;20548;-36
2021/12/29 00:39:08;;;;;;;6.20;2.40;;;-19.90;97.70;;;;;;2220961;64;20112;-38
2021/12/29 00:41:35;;;;;;;2.83;0.93;;;-20.10;97.30;;;;;;2220430;64;20438;-35
2021/12/29 00:44:03;;;;;;;4.07;1.77;;;-20.20;97.40;;;;;;2220892;64;20108;-35
2021/12/29 00:46:30;;;;;;;2.67;0.80;;;-20.20;97.70;;;;;;2220421;64;20506;-36
2021/12/29 00:48:58;;;;;;;1.47;0.67;;;-20.10;97.80;;;;;;2220274;64;20106;-35
2021/12/29 00:51:25;;;;;;;5.77;2.13;;;-20.30;97.70;;;;;;2220102;64;20176;-40
2021/12/29 00:53:52;;;;;;;12.23;3.53;;;-20.30;97.70;;;;;;2220793;64;20139;-35
2021/12/29 00:56:19;;;;;;;7.47;2.07;;;-20.20;97.70;;;;;;2220604;64;20159;-35
2021/12/29 00:58:46;;;;;;;2.93;1.60;;;-20.20;97.60;;;;;;2220884;64;20112;-43
2021/12/29 01:01:13;;;;;;;0.37;0.37;;;-20.20;97.70;;;;;;2220603;64;20097;-36
2021/12/29 01:03:40;;;;;;;6.57;1.83;;;-20.20;97.70;;;;;;2220066;64;20096;-33
2021/12/29 01:06:08;;;;;;;6.10;1.30;;;-20.30;97.70;;;;;;2221028;64;20110;-36
2021/12/29 01:08:36;;;;;;;2.93;1.10;;;-20.30;97.70;;;;;;2220444;64;20093;-37
2021/12/29 01:11:03;;;;;;;3.60;1.67;;;-20.30;97.70;;;;;;2219963;64;20093;-36
2021/12/29 01:13:33;;;;;;;4.70;1.47;;;-20.20;98.10;;;;;;2220375;64;20088;-36
2021/12/29 01:18:34;;;;;;;2.47;0.20;;;-20.30;97.70;;;;;;2220392;64;20088;-38
2021/12/29 01:21:01;;;;;;;1.30;1.03;;;-20.20;97.70;;;;;;2220378;64;20174;-34
2021/12/29 01:23:28;;;;;;;1.07;0.73;;;-20.20;97.70;;;;;;2220423;64;20571;-37
2021/12/29 01:26:00;;;;;;;5.40;1.83;;;-20.20;97.70;;;;;;2219906;64;20624;-37
2021/12/29 01:28:26;;;;;;;0.90;0.90;;;-20.10;97.90;;;;;;2220382;64;20185;-34
2021/12/29 01:30:54;;;;;;;7.23;0.87;;;-20.10;97.90;;;;;;2220495;64;20116;-35
2021/12/29 01:33:22;;;;;;;10.77;1.40;;;-20.20;97.90;;;;;;2220414;64;20091;-35
2021/12/29 01:35:49;;;;;;;4.93;1.37;;;-20.20;97.80;;;;;;2219536;64;20097;-35
2021/12/29 01:38:16;;;;;;;5.03;2.07;;;-20.30;97.50;;;;;;2220280;64;20170;-34
2021/12/29 01:40:48;;;;;;;2.60;1.27;;;-20.30;97.60;;;;;;2220396;64;20112;-37
2021/12/29 01:43:15;;;;;;;8.87;2.23;;;-20.30;97.70;;;;;;2220265;64;20170;-37
2021/12/29 01:45:43;;;;;;;10.30;4.60;;;-20.20;97.80;;;;;;2214592;64;20611;-34
2021/12/29 01:48:10;;;;;;;6.67;2.23;;;-20.10;97.80;;;;;;2214634;64;20105;-36
2021/12/29 01:50:38;;;;;;;4.93;1.90;;;-20.20;97.50;;;;;;2214709;64;20108;-37
2021/12/29 01:53:10;;;;;;;9.53;1.80;;;-20.30;97.30;;;;;;2211278;64;20531;-36
2021/12/29 01:55:37;;;;;;;4.80;3.23;;;-20.40;97.10;;;;;;2214522;64;20242;-37
2021/12/29 01:58:04;;;;;;;7.17;2.40;;;-20.50;97.10;;;;;;2211520;64;20152;-36
2021/12/29 02:00:41;;;;;;;2.87;1.63;;;-20.50;97.10;;;;;;2214487;64;20089;-34
2021/12/29 02:03:09;;;;;;;12.20;2.47;;;-20.50;97.30;;;;;;2208109;64;20112;-36
2021/12/29 02:05:41;;;;;;;0.00;0.00;;;-20.60;97.30;;;;;;2212135;64;20089;-41
2021/12/29 02:08:08;;;;;;;0.43;0.33;;;-20.60;97.30;;;;;;2215285;64;20112;-35
2021/12/29 02:10:42;;;;;;;0.70;0.20;;;-20.50;97.50;;;;;;2215246;64;20587;-35
2021/12/29 02:13:12;;;;;;;;;;;-20.50;97.40;;;;;;2215400;64;20202;-35
2021/12/29 02:15:39;;;;;;;4.53;1.20;;;-20.60;97.40;;;;;;2215209;64;19984;-37
2021/12/29 02:18:16;;;;;;;5.90;2.33;;;-20.60;97.40;;;;;;2208954;64;20571;-38
2021/12/29 02:20:45;;;;;;;4.50;0.70;;;-20.60;97.40;;;;;;2215651;64;20096;-34
2021/12/29 02:23:26;;;;;;;3.53;1.17;;;-20.60;97.30;;;;;;2217892;64;20577;-33
2021/12/29 02:25:55;;;;;;;3.87;1.50;;;-20.60;97.30;;;;;;2220195;64;20123;-35
2021/12/29 02:28:27;;;;;;;3.10;1.50;;;-20.70;97.20;;;;;;2213616;64;20096;-34
2021/12/29 02:30:55;;;;;;;3.43;1.27;;;-20.70;97.20;;;;;;2220990;64;20165;-35
2021/12/29 02:33:24;;;;;;;2.27;1.73;;;-20.70;97.40;;;;;;2220069;64;20499;-34
2021/12/29 02:35:50;;;;;;;6.83;1.37;;;-20.60;97.50;;;;;;2220040;64;20548;-35
2021/12/29 02:38:21;;;;;;;6.93;2.30;;;-20.60;97.50;;;;;;2220122;64;20092;-39
2021/12/29 02:40:56;;;;;;;5.40;2.00;;;-20.70;97.40;;;;;;2220892;64;20169;-38
2021/12/29 02:43:29;;;;;;;4.60;2.03;;;-20.50;97.70;;;;;;2220096;64;20092;-35
2021/12/29 02:46:00;;;;;;;7.87;1.47;;;-20.50;97.60;;;;;;2220687;64;20099;-34
2021/12/29 02:48:30;;;;;;;5.93;1.73;;;-20.50;97.60;;;;;;2220806;64;20449;-34
2021/12/29 02:51:00;;;;;;;13.50;3.37;;;-20.50;97.60;;;;;;2219966;64;20552;-36
2021/12/29 02:53:33;;;;;;;12.77;3.92;;;-20.50;97.50;;;;;;2213898;64;20084;-37
2021/12/29 02:56:00;;;;;;;3.63;1.13;;;-20.30;97.80;;;;;;2220460;64;20104;-35
2021/12/29 02:58:27;;;;;;;7.23;2.53;;;-20.30;97.80;;;;;;2216837;64;20098;-37
2021/12/29 03:00:56;;;;;;;11.30;3.03;;;-20.10;98.10;;;;;;2220641;64;20104;-36
2021/12/29 03:03:25;;;;;;;6.20;1.73;;;-20.00;98.30;;;;;;2220687;64;20095;-34
2021/12/29 03:05:52;;;;;;;34.03;14.57;;;-19.90;98.30;;;;;;2220414;64;20177;-36
2021/12/29 03:08:20;;;;;;;0.90;0.83;;;-19.90;98.30;;;;;;2220839;64;20193;-37
2021/12/29 03:10:52;;;;;;;5.93;2.40;;;-19.80;98.30;;;;;;2220630;64;20101;-37
2021/12/29 03:13:25;;;;;;;7.47;3.20;;;-19.70;98.50;;;;;;2220669;64;20152;-37
2021/12/29 03:15:53;;;;;;;4.53;1.97;;;-19.70;98.50;;;;;;2220385;64;20455;-35
2021/12/29 03:18:20;;;;;;;6.07;2.60;;;-19.60;98.60;;;;;;2220751;64;20084;-36
2021/12/29 03:20:51;;;;;;;7.47;3.23;;;-19.50;98.70;;;;;;2220763;64;20464;-36
2021/12/29 03:23:18;;;;;;;10.60;2.50;;;-19.40;98.70;;;;;;2220613;64;20176;-36
2021/12/29 03:25:48;;;;;;;2.37;0.40;;;-19.40;98.70;;;;;;2220471;64;20526;-36
2021/12/29 03:28:19;;;;;;;6.83;1.83;;;-19.20;98.70;;;;;;2220664;64;20246;-35
2021/12/29 03:30:50;;;;;;;2.90;1.30;;;-19.20;98.80;;;;;;2219716;64;20467;-35
2021/12/29 03:33:18;;;;;;;6.67;1.83;;;-19.10;98.80;;;;;;2220374;64;20100;-37
2021/12/29 03:35:53;;;;;;;6.03;2.23;;;-19.10;98.70;;;;;;2220617;64;20480;-34
2021/12/29 03:38:22;;;;;;;9.87;4.67;;;-18.90;98.90;;;;;;2220679;64;20108;-37
2021/12/29 03:40:50;;;;;;;0.10;0.10;;;-18.80;99.10;;;;;;2220729;64;20096;-35
2021/12/29 03:43:17;;;;;;;7.03;1.50;;;-18.80;99.00;;;;;;2220661;64;20115;-40
2021/12/29 03:45:46;;;;;;;7.10;0.83;;;-18.60;99.10;;;;;;2220433;64;20108;-34
2021/12/29 03:48:15;;;;;;;1.10;0.97;;;-18.50;99.20;;;;;;2220739;64;20525;-36
2021/12/29 03:50:46;;;;;;;3.27;1.47;;;-18.50;99.20;;;;;;2220352;64;20092;-35
2021/12/29 03:53:14;;;;;;;0.30;0.30;;;-18.10;99.90;;;;;;2220467;64;20185;-36
2021/12/29 03:55:44;;;;;;;2.67;1.07;;;-17.90;99.90;;;;;;2220315;64;20100;-36
2021/12/29 03:58:12;;;;;;;4.13;2.07;;;-18.00;99.70;;;;;;2220437;64;20720;-36
2021/12/29 04:00:39;;;;;;;9.53;4.33;;;-17.90;99.90;;;;;;2220508;64;20496;-37
2021/12/29 04:03:06;;;;;;;8.33;3.43;;;-18.00;99.60;;;;;;2220489;64;20514;-37
2021/12/29 04:05:32;;;;;;;4.43;1.93;;;-18.00;99.50;;;;;;2223077;64;20080;-37
2021/12/29 04:08:03;;;;;;;5.73;2.20;;;-17.90;99.50;;;;;;2220512;64;20096;-34
2021/12/29 04:10:35;;;;;;;3.87;2.10;;;-17.80;99.60;;;;;;2220377;64;20103;-34
2021/12/29 04:13:02;;;;;;;5.27;1.83;;;-17.80;99.60;;;;;;2220645;64;20092;-35
2021/12/29 04:15:37;;;;;;;6.17;1.57;;;-17.80;99.50;;;;;;2220254;64;20111;-37
2021/12/29 04:18:25;;;;;;;4.60;1.92;;;-17.90;99.40;;;;;;2220477;64;20197;-39
2021/12/29 04:21:08;;;;;;;3.30;1.83;;;-18.10;99.00;;;;;;2220527;64;20544;-39
2021/12/29 04:23:35;;;;;;;6.53;2.67;;;-17.70;99.90;;;;;;2220321;64;20077;-37
2021/12/29 04:26:07;;;;;;;4.17;1.37;;;-17.50;99.90;;;;;;2219580;64;20114;-35
2021/12/29 04:28:35;;;;;;;7.33;2.97;;;-17.30;99.90;;;;;;2220630;64;20186;-36
2021/12/29 04:31:07;;;;;;;8.07;2.50;;;-17.30;99.90;;;;;;2220297;64;20092;-37
2021/12/29 04:33:36;;;;;;;18.20;6.20;;;-17.40;99.80;;;;;;2220785;64;20100;-36
2021/12/29 04:36:04;;;;;;;10.77;4.10;;;-17.40;99.80;;;;;;2220208;64;20100;-35
2021/12/29 04:38:33;;;;;;;11.57;4.40;;;-17.40;99.60;;;;;;2220498;64;20175;-35
2021/12/29 04:41:02;;;;;;;5.60;2.70;;;-17.50;99.60;;;;;;2220149;64;20089;-35
2021/12/29 04:43:30;;;;;;;7.37;3.77;;;-17.70;98.90;;;;;;2220436;64;20549;-36
2021/12/29 04:45:58;;;;;;;0.47;0.47;;;-17.80;98.70;;;;;;2219546;64;20100;-37
2021/12/29 04:48:30;;;;;;;6.10;2.53;;;-17.70;99.20;;;;;;2220242;64;20084;-36
2021/12/29 04:51:12;;;;;;;4.77;2.03;;;-17.30;99.90;;;;;;2220273;64;20111;-37
2021/12/29 04:53:40;;;;;;;5.27;1.77;;;-17.10;99.90;;;;;;2219672;64;20089;-36
2021/12/29 04:56:07;;;;;;;0.57;0.50;;;-17.20;99.90;;;;;;2220150;64;20388;-38
2021/12/29 04:58:34;;;;;;;4.67;1.10;;;-17.20;99.90;;;;;;2220200;64;20580;-36
2021/12/29 05:01:05;;;;;;;0.83;0.83;;;-17.30;99.90;;;;;;2220302;64;20089;-36
2021/12/29 05:03:38;;;;;;;3.13;1.93;;;-17.30;99.90;;;;;;2219316;64;20189;-35
2021/12/29 05:08:35;;;;;;;11.93;4.03;;;-17.10;99.90;;;;;;2219555;64;20103;-35
2021/12/29 05:11:13;;;;;;;12.80;4.30;;;-17.20;99.90;;;;;;2220400;64;20511;-35
2021/12/29 05:13:42;;;;;;;20.43;5.10;;;-17.20;99.90;;;;;;2220789;64;20123;-35
2021/12/29 05:16:11;;;;;;;13.27;4.80;;;-17.20;99.90;;;;;;2219975;64;20116;-36
2021/12/29 05:18:40;;;;;;;6.57;2.27;;;-17.20;99.90;;;;;;2220721;64;20617;-36
2021/12/29 05:21:09;;;;;;;2.77;1.50;;;-17.10;99.90;;;;;;2220504;64;20556;-36
2021/12/29 05:23:37;;;;;;;1.10;1.07;;;-17.10;99.90;;;;;;2220232;64;20137;-36
2021/12/29 05:26:07;;;;;;;0.87;0.83;;;-17.00;99.90;;;;;;2220424;64;20115;-35
2021/12/29 05:28:39;;;;;;;8.13;2.90;;;-17.00;99.90;;;;;;2219514;64;20168;-35
2021/12/29 05:31:07;;;;;;;1.90;1.33;;;-17.10;99.90;;;;;;2219572;64;20111;-35
2021/12/29 05:33:36;;;;;;;11.97;3.17;;;-17.00;99.90;;;;;;2219429;64;20112;-35
2021/12/29 05:36:04;;;;;;;11.60;3.03;;;-16.90;99.90;;;;;;2220246;64;20170;-34
2021/12/29 05:38:32;;;;;;;30.27;13.53;;;-16.80;99.90;;;;;;2220450;64;20088;-36
2021/12/29 05:41:03;;;;;;;17.57;6.23;;;-16.70;99.90;;;;;;2220695;64;20174;-37
2021/12/29 05:43:31;;;;;;;6.03;4.10;;;-16.70;99.90;;;;;;2220319;64;20099;-35
2021/12/29 05:45:59;;;;;;;17.77;5.53;;;-16.70;99.90;;;;;;2220950;64;20186;-36
2021/12/29 05:48:29;;;;;;;5.93;1.57;;;-16.70;99.90;;;;;;2221026;64;20084;-35
2021/12/29 05:50:58;;;;;;;6.03;2.37;;;-16.60;99.90;;;;;;2220645;64;20109;-34
2021/12/29 05:53:26;;;;;;;12.87;4.07;;;-16.50;99.90;;;;;;2220875;64;20108;-34
2021/12/29 05:55:54;;;;;;;20.53;6.10;;;-16.40;99.90;;;;;;2220655;64;20088;-35
2021/12/29 05:58:22;;;;;;;19.67;6.83;;;-16.30;99.90;;;;;;2221110;64;20104;-35
2021/12/29 06:00:50;;;;;;;25.53;8.53;;;-16.20;99.90;;;;;;2220978;64;20112;-35
2021/12/29 06:03:20;;;;;;;21.33;8.00;;;-16.00;99.90;;;;;;2220946;64;20097;-35
2021/12/29 06:05:51;;;;;;;18.93;6.60;;;-16.00;99.90;;;;;;2220867;64;20655;-35
2021/12/29 06:08:21;;;;;;;27.83;8.27;;;-15.70;99.90;;;;;;2220771;64;20103;-35
2021/12/29 06:10:50;;;;;;;26.03;8.83;;;-15.60;99.90;;;;;;2220078;64;20534;-34
2021/12/29 06:13:18;;;;;;;23.37;7.37;;;-15.50;99.90;;;;;;2221067;64;20168;-35
2021/12/29 06:15:48;;;;;;;34.10;10.30;;;-15.50;99.90;;;;;;2220253;64;20112;-35
2021/12/29 06:18:18;;;;;;;23.67;6.97;;;-15.30;99.90;;;;;;2221201;64;20093;-34
2021/12/29 06:20:48;;;;;;;25.63;8.53;;;-15.10;99.90;;;;;;2220227;64;20107;-34
2021/12/29 06:23:31;;;;;;;16.27;5.43;;;-15.00;99.90;;;;;;2221078;64;20084;-35
2021/12/29 06:26:03;;;;;;;;;;;-14.70;99.90;;;;;;2220984;64;20148;-37
2021/12/29 06:28:32;;;;;;;21.07;8.73;;;-14.70;99.90;;;;;;2220664;64;20502;-42
2021/12/29 06:31:02;;;;;;;22.60;8.73;;;-14.60;99.90;;;;;;2221119;64;20076;-36
2021/12/29 06:33:33;;;;;;;24.43;8.80;;;-14.70;99.90;;;;;;2220712;64;20092;-37
2021/12/29 06:36:02;;;;;;;25.00;6.87;;;-14.50;99.90;;;;;;2220911;64;20104;-36
2021/12/29 06:38:34;;;;;;;22.63;7.90;;;-14.50;99.90;;;;;;2220846;64;20111;-35
2021/12/29 06:41:05;;;;;;;25.57;9.87;;;-14.40;99.90;;;;;;2220167;64;20080;-36
2021/12/29 06:43:41;;;;;;;18.80;7.53;;;-14.20;99.90;;;;;;2220814;64;20080;-37
2021/12/29 06:46:12;;;;;;;24.17;7.43;;;-14.90;98.20;;;;;;2220758;64;20110;-36
2021/12/29 06:48:43;;;;;;;19.07;7.23;;;-15.00;99.40;;;;;;2220625;64;20084;-36
2021/12/29 06:51:13;;;;;;;25.00;7.97;;;-14.90;99.70;;;;;;2220781;64;20101;-39
2021/12/29 06:53:45;;;;;;;26.63;7.97;;;-14.90;99.70;;;;;;2220666;64;20568;-36
2021/12/29 06:56:15;;;;;;;24.83;8.67;;;-14.80;99.90;;;;;;2220842;64;20181;-35
2021/12/29 06:58:44;;;;;;;18.37;7.27;;;-14.80;99.90;;;;;;2220593;64;20099;-34
2021/12/29 07:01:16;;;;;;;28.23;10.43;;;-14.50;99.90;;;;;;2220777;64;20096;-36
2021/12/29 07:03:45;;;;;;;49.17;17.73;;;-14.00;99.90;;;;;;2220884;64;20082;-35
2021/12/29 07:06:14;;;;;;;36.97;15.50;;;-13.70;99.90;;;;;;2220958;64;20104;-38
2021/12/29 07:08:43;;;;;;;35.20;11.87;;;-13.50;99.90;;;;;;2220626;64;20152;-33
2021/12/29 07:11:14;;;;;;;24.33;9.10;;;-13.70;99.90;;;;;;2220914;64;20594;-35
2021/12/29 07:13:44;;;;;;;25.97;11.07;;;-13.70;99.30;;;;;;2220547;64;20166;-35
2021/12/29 07:16:12;;;;;;;30.77;10.67;;;-13.70;99.50;;;;;;2215997;64;20171;-36
2021/12/29 07:18:38;;;;;;;15.90;7.43;;;-13.80;99.20;;;;;;2220715;64;20187;-37
2021/12/29 07:21:05;;;;;;;22.00;9.13;;;-13.40;99.90;;;;;;2220707;64;20089;-36
2021/12/29 07:23:32;;;;;;;23.07;9.70;;;-13.70;98.20;;;;;;2219783;64;20107;-37
2021/12/29 07:25:58;;;;;;;20.43;7.90;;;-13.60;98.60;;;;;;2220712;64;20104;-34
2021/12/29 07:28:25;;;;;;;20.10;8.27;;;-14.00;97.20;;;;;;2220579;64;20093;-35
2021/12/29 07:30:51;;;;;;;18.93;6.87;;;-14.70;96.20;;;;;;2218961;64;20106;-36
2021/12/29 07:33:18;;;;;;;16.97;7.17;;;-15.20;95.30;;;;;;2215595;64;20089;-36
2021/12/29 07:35:44;;;;;;;16.97;6.07;;;-15.20;95.30;;;;;;2218822;64;20093;-35
2021/12/29 07:38:11;;;;;;;16.13;7.77;;;-15.50;96.00;;;;;;2218996;64;20104;-35
2021/12/29 07:40:37;;;;;;;13.80;5.77;;;-15.30;96.60;;;;;;2218940;64;20245;-36
2021/12/29 07:43:04;;;;;;;12.17;4.93;;;-15.80;95.40;;;;;;2218829;64;20093;-36
2021/12/29 07:45:31;;;;;;;12.57;4.83;;;-15.60;96.50;;;;;;2219093;64;20101;-35
2021/12/29 07:47:58;;;;;;;14.13;5.47;;;-15.40;96.60;;;;;;2218934;64;20151;-36
2021/12/29 07:50:24;;;;;;;17.23;6.27;;;-15.40;96.60;;;;;;2218991;64;20089;-36
2021/12/29 07:52:56;;;;;;;10.53;4.37;;;-15.60;95.50;;;;;;2212528;64;20560;-35
2021/12/29 07:55:23;;;;;;;15.20;5.87;;;-15.30;96.90;;;;;;2218747;64;20104;-37
2021/12/29 07:57:51;;;;;;;10.27;3.07;;;-15.40;96.00;;;;;;2218885;64;20099;-34
2021/12/29 08:00:18;;;;;;;12.87;5.70;;;-15.30;96.90;;;;;;2218780;64;20091;-36
2021/12/29 08:02:49;;;;;;;7.30;2.30;;;-15.10;96.90;;;;;;2218939;64;20105;-36
2021/12/29 08:05:16;;;;;;;15.87;5.50;;;-14.90;96.50;;;;;;2220383;64;20538;-36
2021/12/29 08:07:42;;;;;;;9.63;3.60;;;-15.30;95.30;;;;;;2220601;64;20127;-40
2021/12/29 08:10:11;;;;;;;10.23;4.40;;;-15.20;95.80;;;;;;2220639;64;20119;-35
2021/12/29 08:12:38;;;;;;;8.43;4.03;;;-15.60;94.80;;;;;;2220871;64;20085;-36
2021/12/29 08:15:08;;;;;;;6.00;2.87;;;-15.60;95.80;;;;;;2220558;64;20212;-38
2021/12/29 08:17:39;;;;;;;11.93;5.20;;;-16.00;93.70;;;;;;2220767;64;20084;-36
2021/12/29 08:20:06;;;;;;;10.00;4.77;;;-16.00;94.10;;;;;;2220414;64;20092;-35
2021/12/29 08:22:35;;;;;;;6.57;3.57;;;-16.10;94.20;;;;;;2220603;64;20480;-38
2021/12/29 08:25:06;;;;;;;12.87;5.03;;;-16.10;94.70;;;;;;2220285;64;20100;-35
2021/12/29 08:27:38;;;;;;;9.20;4.87;;;-16.00;94.90;;;;;;2220707;64;20095;-34
2021/12/29 08:30:07;;;;;;;8.47;3.37;;;-16.20;94.20;;;;;;2219786;64;20085;-35
2021/12/29 08:32:33;;;;;;;9.83;4.43;;;-16.40;94.00;;;;;;2220587;64;20099;-36
2021/12/29 08:35:00;;;;;;;11.63;5.07;;;-16.10;95.10;;;;;;2220244;64;20096;-38
2021/12/29 08:37:26;;;;;;;10.43;3.93;;;-16.30;94.50;;;;;;2220514;64;20081;-36
2021/12/29 08:39:55;;;;;;;10.47;4.90;;;-16.20;94.50;;;;;;2220373;64;20544;-36
2021/12/29 08:42:23;;;;;;;15.13;5.20;;;-16.30;94.60;;;;;;2220508;64;20545;-35
2021/12/29 08:44:49;;;;;;;11.13;4.17;;;-16.20;94.90;;;;;;2220229;64;20441;-37
2021/12/29 08:47:16;;;;;;;13.37;4.67;;;-16.20;94.50;;;;;;2220609;64;20105;-37
2021/12/29 08:49:42;;;;;;;14.00;5.63;;;-16.40;94.30;;;;;;2220346;64;20089;-36
2021/12/29 08:52:09;;;;;;;15.23;4.87;;;-16.50;94.10;;;;;;2220677;64;20508;-35
2021/12/29 08:54:36;;;;;;;10.13;3.67;;;-16.50;94.60;;;;;;2220388;64;20558;-39
2021/12/29 08:57:03;;;;;;;10.73;4.00;;;-16.50;95.00;;;;;;2220305;64;20089;-36
2021/12/29 08:59:30;;;;;;;13.80;4.10;;;-16.60;94.80;;;;;;2220372;64;20105;-35
2021/12/29 09:01:56;;;;;;;6.50;2.60;;;-16.80;94.60;;;;;;2220447;64;20085;-35
2021/12/29 09:04:23;;;;;;;13.70;5.00;;;-16.70;95.10;;;;;;2220330;64;20107;-36
2021/12/29 09:06:49;;;;;;;15.07;5.70;;;-16.80;95.10;;;;;;2220464;64;20495;-36
2021/12/29 09:09:16;;;;;;;15.23;5.50;;;-16.70;95.30;;;;;;2220035;64;20188;-37
2021/12/29 09:11:42;;;;;;;12.80;5.40;;;-16.70;94.90;;;;;;2220452;64;20107;-37
2021/12/29 09:14:09;;;;;;;6.57;3.40;;;-16.50;95.30;;;;;;2220341;64;20491;-37
2021/12/29 09:16:35;;;;;;;15.73;6.17;;;-16.90;94.30;;;;;;2220310;64;20130;-35
2021/12/29 09:19:02;;;;;;;14.80;6.43;;;-16.80;95.50;;;;;;2220253;64;20256;-40
2021/12/29 09:21:30;;;;;;;12.27;5.37;;;-16.60;95.90;;;;;;2220384;64;20177;-36
2021/12/29 09:23:56;;;;;;;10.10;5.73;;;-16.60;95.80;;;;;;2220402;64;20103;-37
2021/12/29 09:26:23;;;;;;;20.33;7.43;;;-16.30;96.50;;;;;;2219793;64;20091;-37
2021/12/29 09:28:49;;;;;;;18.97;6.93;;;-16.20;96.30;;;;;;2220252;64;20097;-37
2021/12/29 09:31:16;;;;;;;15.63;5.63;;;-16.00;96.40;;;;;;2220366;64;20541;-36
2021/12/29 09:33:43;;;;;;;9.97;4.03;;;-15.80;96.20;;;;;;2220192;64;20081;-37
2021/12/29 09:36:10;;;;;;;17.00;6.10;;;-15.90;95.90;;;;;;2220422;64;20110;-37
2021/12/29 09:38:36;;;;;;;15.60;7.00;;;-15.80;96.00;;;;;;2220363;64;20137;-36
2021/12/29 09:41:04;;;;;;;18.10;7.40;;;-15.70;96.30;;;;;;2220248;64;20197;-36
2021/12/29 09:43:30;;;;;;;12.93;6.27;;;-15.70;96.00;;;;;;2220151;64;20116;-38
2021/12/29 09:45:57;;;;;;;17.23;5.90;;;-15.80;94.90;;;;;;2219816;64;20476;-37
2021/12/29 09:48:23;;;;;;;21.97;8.10;;;-15.90;95.60;;;;;;2220106;64;20084;-37
2021/12/29 09:50:50;;;;;;;18.80;6.93;;;-16.10;95.20;;;;;;2220329;64;20154;-35
2021/12/29 09:53:17;;;;;;;14.40;6.33;;;-16.20;95.00;;;;;;2219981;64;20149;-36
2021/12/29 09:55:45;;;;;;;17.30;6.47;;;-16.10;94.90;;;;;;2219963;64;20472;-37
2021/12/29 09:58:13;;;;;;;16.17;5.67;;;-16.20;95.00;;;;;;2220267;64;20582;-39
2021/12/29 10:00:48;;;;;;;17.27;7.43;;;-16.20;95.60;;;;;;2220090;64;20092;-36
2021/12/29 10:03:16;;;;;;;13.13;5.07;;;-16.10;95.10;;;;;;2220050;64;20552;-36
2021/12/29 10:05:44;;;;;;;23.10;7.63;;;-16.50;94.10;;;;;;2219919;64;20092;-39
2021/12/29 10:08:18;;;;;;;28.33;9.37;;;-16.70;94.50;;;;;;2219874;64;20085;-37
2021/12/29 10:10:51;;;;;;;27.50;10.88;;;-16.40;95.30;;;;;;2220082;64;20600;-37
2021/12/29 10:13:21;;;;;;;26.97;9.80;;;-16.50;94.30;;;;;;2219361;64;20088;-35
2021/12/29 10:15:55;;;;;;;20.17;7.87;;;-16.50;94.90;;;;;;2220174;64;20095;-36
2021/12/29 10:18:37;;;;;;;15.63;5.47;;;-16.40;95.10;;;;;;2220134;64;20100;-34
2021/12/29 10:21:08;;;;;;;14.97;6.87;;;-16.60;94.50;;;;;;2220128;64;20108;-34
2021/12/29 10:23:51;;;;;;;23.30;7.07;;;-16.50;95.10;;;;;;2220165;64;20519;-36
2021/12/29 10:26:19;;;;;;;20.67;7.03;;;-16.60;95.10;;;;;;2221054;64;20155;-37
2021/12/29 10:28:48;;;;;;;23.17;8.17;;;-16.90;94.40;;;;;;2220746;64;20085;-36
2021/12/29 10:31:23;;;;;;;12.83;5.23;;;-16.80;94.90;;;;;;2221054;64;20079;-36
2021/12/29 10:33:55;;;;;;;20.30;7.47;;;-16.80;95.10;;;;;;2220091;64;20468;-36
2021/12/29 10:36:27;;;;;;;27.10;7.53;;;-16.70;95.40;;;;;;2220778;64;20602;-33
2021/12/29 10:39:17;;;;;;;17.87;6.63;;;-16.80;94.90;;;;;;2220872;64;20185;-34
2021/12/29 10:42:04;;;;;;;13.00;6.80;;;-17.00;94.80;;;;;;2220748;64;20104;-37
2021/12/29 10:44:36;;;;;;;19.43;7.27;;;-16.80;95.60;;;;;;2220787;64;20113;-39
2021/12/29 10:47:25;;;;;;;16.40;5.97;;;-16.70;95.60;;;;;;2220784;64;20556;-36
2021/12/29 10:49:57;;;;;;;21.73;10.20;;;-16.80;95.20;;;;;;2220799;64;20107;-36
2021/12/29 10:52:38;;;;;;;23.23;10.47;;;-16.70;95.70;;;;;;2220639;64;20092;-34
2021/12/29 10:55:09;;;;;;;26.43;10.07;;;-16.70;95.70;;;;;;2220339;64;20101;-36
2021/12/29 10:57:38;;;;;;;33.23;13.90;;;-16.60;95.90;;;;;;2220614;64;20583;-36
2021/12/29 11:00:11;;;;;;;24.83;8.67;;;-16.60;95.60;;;;;;2220867;64;20107;-36
2021/12/29 11:02:42;;;;;;;16.57;8.13;;;-16.80;95.00;;;;;;2219978;64;20100;-34
2021/12/29 11:05:09;;;;;;;19.47;6.27;;;-16.80;95.60;;;;;;2220829;64;20093;-37
2021/12/29 11:07:38;;;;;;;23.07;8.30;;;-16.90;95.40;;;;;;2220435;64;20080;-35
2021/12/29 11:10:18;;;;;;;20.77;8.13;;;-16.80;96.10;;;;;;2220809;64;20085;-36
2021/12/29 11:12:50;;;;;;;22.50;9.17;;;-16.80;96.10;;;;;;2220558;64;20100;-36
2021/12/29 11:15:26;;;;;;;20.13;6.97;;;-17.00;95.40;;;;;;2220685;64;20579;-38
2021/12/29 11:18:07;;;;;;;23.77;9.13;;;-17.10;95.80;;;;;;2220447;64;20085;-36
2021/12/29 11:20:38;;;;;;;24.70;8.30;;;-16.90;96.30;;;;;;2220636;64;20579;-35
2021/12/29 11:23:17;;;;;;;24.73;8.00;;;-16.90;96.30;;;;;;2220646;64;20088;-36
2021/12/29 11:25:45;;;;;;;12.40;4.87;;;-16.70;96.30;;;;;;2220663;64;20567;-36
2021/12/29 11:28:30;;;;;;;21.30;9.47;;;-16.80;96.00;;;;;;2220722;64;20084;-35
2021/12/29 11:30:58;;;;;;;27.13;8.43;;;-16.90;95.60;;;;;;2219995;64;20437;-37
2021/12/29 11:33:29;;;;;;;20.83;7.47;;;-16.90;95.80;;;;;;2220038;64;20095;-36
2021/12/29 11:36:01;;;;;;;22.27;8.00;;;-17.00;95.90;;;;;;2219946;64;20160;-37
2021/12/29 11:38:29;;;;;;;24.60;7.03;;;-17.20;95.20;;;;;;2220522;64;20162;-35
2021/12/29 11:41:01;;;;;;;24.00;9.07;;;-17.20;95.70;;;;;;2220405;64;20545;-34
2021/12/29 11:43:37;;;;;;;29.07;9.23;;;-17.30;95.80;;;;;;2219670;64;20507;-34
2021/12/29 11:46:08;;;;;;;19.17;5.33;;;-17.30;95.90;;;;;;2220708;64;20093;-34
2021/12/29 11:48:36;;;;;;;29.37;10.53;;;-17.30;96.00;;;;;;2220691;64;20095;-37
2021/12/29 11:51:05;;;;;;;19.83;7.33;;;-17.50;95.70;;;;;;2220890;64;20160;-35
2021/12/29 11:53:50;;;;;;;21.60;7.27;;;-17.50;96.00;;;;;;2219996;64;20103;-34
2021/12/29 11:56:21;;;;;;;26.15;7.53;;;-17.40;96.20;;;;;;2220057;64;20480;-37
2021/12/29 11:58:51;;;;;;;26.40;8.00;;;-17.50;95.90;;;;;;2220566;64;20092;-35
2021/12/29 12:01:30;;;;;;;18.33;6.90;;;-17.60;96.10;;;;;;2213781;64;20173;-34
2021/12/29 12:04:02;;;;;;;24.47;8.03;;;-17.80;96.10;;;;;;2219607;64;20089;-35
2021/12/29 12:06:43;;;;;;;26.00;9.83;;;-17.90;96.30;;;;;;2219672;64;20657;-36
2021/12/29 12:09:15;;;;;;;23.40;8.20;;;-17.80;96.70;;;;;;2220613;64;20069;-34
2021/12/29 12:12:04;;;;;;;20.63;9.23;;;-17.80;96.40;;;;;;2220326;64;20089;-35
2021/12/29 12:14:44;;;;;;;34.77;10.43;;;-17.80;96.50;;;;;;2220014;64;20085;-35
2021/12/29 12:17:23;;;;;;;27.30;9.93;;;-17.70;96.90;;;;;;2214739;64;20155;-35
2021/12/29 12:20:04;;;;;;;14.90;7.47;;;-17.80;96.70;;;;;;2214905;64;20085;-35
2021/12/29 12:22:49;;;;;;;28.40;9.67;;;-17.90;96.30;;;;;;2215421;64;20108;-36
2021/12/29 12:25:25;;;;;;;19.80;9.18;;;-17.90;96.70;;;;;;2212267;64;20093;-35
2021/12/29 12:28:01;;;;;;;22.60;9.40;;;-18.00;96.60;;;;;;2215123;64;20147;-35
2021/12/29 12:30:46;;;;;;;23.52;9.25;;;-18.00;96.90;;;;;;2215061;64;20092;-35
2021/12/29 12:33:18;;;;;;;25.87;11.70;;;-18.10;96.90;;;;;;2211860;64;20647;-35
2021/12/29 12:35:51;;;;;;;27.07;7.93;;;-18.20;97.00;;;;;;2211962;64;20111;-35
2021/12/29 12:38:30;;;;;;;30.20;8.93;;;-18.20;97.00;;;;;;2211870;64;20105;-35
2021/12/29 12:41:13;;;;;;;16.50;7.23;;;-18.30;97.20;;;;;;2215183;64;20171;-34
2021/12/29 12:44:15;;;;;;;23.20;7.53;;;-18.20;97.50;;;;;;2211534;64;20554;-35
2021/12/29 12:46:46;;;;;;;7.80;4.07;;;-18.20;97.50;;;;;;2214660;64;20096;-34
2021/12/29 12:49:22;;;;;;;21.27;8.47;;;-18.20;97.50;;;;;;2214482;64;20216;-36
2021/12/29 12:52:08;;;;;;;23.77;11.23;;;-18.20;97.60;;;;;;2214632;64;20551;-35